createdAt,value
2018-11-07T00:01:01.619Z,12.77
2018-11-07T00:03:30.118Z,11.93
2018-11-07T00:05:58.602Z,12.80
2018-11-07T00:08:27.140Z,12.50
2018-11-07T00:10:55.938Z,12.90
2018-11-07T00:13:24.428Z,12.40
2018-11-07T00:15:52.942Z,15.53
2018-11-07T00:18:21.433Z,13.20
2018-11-07T00:20:49.954Z,14.67
2018-11-07T00:23:18.478Z,13.60
2018-11-07T00:25:46.964Z,14.70
2018-11-07T00:28:15.450Z,14.90
2018-11-07T00:30:43.946Z,16.60
2018-11-07T00:33:12.432Z,12.77
2018-11-07T00:35:40.959Z,12.90
2018-11-07T00:38:09.750Z,12.10
2018-11-07T00:40:38.285Z,11.40
2018-11-07T00:45:59.763Z,12.23
2018-11-07T00:48:28.296Z,14.13
2018-11-07T00:50:56.800Z,11.03
2018-11-07T00:53:25.322Z,14.07
2018-11-07T00:55:53.800Z,13.67
2018-11-07T00:58:22.271Z,12.63
2018-11-07T01:00:50.759Z,13.27
2018-11-07T01:03:19.258Z,14.27
2018-11-07T01:05:47.779Z,13.20
2018-11-07T01:08:16.288Z,12.93
2018-11-07T01:10:44.790Z,12.60
2018-11-07T01:13:14.134Z,12.53
2018-11-07T01:15:42.667Z,13.40
2018-11-07T01:18:11.325Z,13.03
2018-11-07T01:20:39.823Z,14.27
2018-11-07T01:23:08.339Z,14.30
2018-11-07T01:25:36.825Z,15.13
2018-11-07T01:28:05.647Z,14.13
2018-11-07T01:30:34.099Z,14.33
2018-11-07T01:33:02.615Z,15.83
2018-11-07T01:35:31.466Z,13.10
2018-11-07T01:37:59.964Z,15.70
2018-11-07T01:40:28.463Z,14.10
2018-11-07T01:42:56.979Z,14.73
2018-11-07T01:45:25.463Z,14.43
2018-11-07T01:47:54.408Z,13.90
2018-11-07T01:50:22.912Z,14.47
2018-11-07T01:52:51.415Z,14.90
2018-11-07T01:55:19.954Z,13.63
2018-11-07T01:57:48.462Z,14.27
2018-11-07T02:00:16.957Z,13.40
2018-11-07T02:02:45.469Z,14.60
2018-11-07T02:05:14.422Z,15.70
2018-11-07T02:07:43.430Z,21.30
2018-11-07T02:10:12.190Z,22.37
2018-11-07T02:12:41.559Z,22.00
2018-11-07T02:15:10.758Z,20.97
2018-11-07T02:17:39.305Z,18.90
2018-11-07T02:20:09.170Z,20.20
2018-11-07T02:22:37.703Z,24.50
2018-11-07T02:25:06.601Z,24.40
2018-11-07T02:27:35.109Z,21.90
2018-11-07T02:30:03.715Z,20.50
2018-11-07T02:32:32.207Z,20.10
2018-11-07T02:35:00.718Z,15.60
2018-11-07T02:37:29.218Z,17.57
2018-11-07T02:39:57.737Z,16.63
2018-11-07T02:42:26.237Z,16.17
2018-11-07T02:44:54.737Z,16.90
2018-11-07T02:47:23.227Z,15.60
2018-11-07T02:49:51.748Z,15.70
2018-11-07T02:52:20.322Z,15.43
2018-11-07T02:54:48.830Z,16.00
2018-11-07T02:57:17.551Z,15.23
2018-11-07T02:59:46.052Z,13.70
2018-11-07T03:02:15.393Z,13.83
2018-11-07T03:04:43.922Z,15.90
2018-11-07T03:07:12.398Z,17.07
2018-11-07T03:09:40.879Z,18.23
2018-11-07T03:12:09.379Z,18.20
2018-11-07T03:14:37.903Z,19.17
2018-11-07T03:17:06.582Z,18.17
2018-11-07T03:19:35.092Z,18.30
2018-11-07T03:22:03.623Z,16.87
2018-11-07T03:24:32.160Z,17.80
2018-11-07T03:27:00.662Z,15.57
2018-11-07T03:29:29.558Z,15.47
2018-11-07T03:31:58.150Z,14.00
2018-11-07T03:34:26.646Z,16.93
2018-11-07T03:37:04.967Z,14.37
2018-11-07T03:39:38.853Z,14.77
2018-11-07T03:42:07.338Z,16.30
2018-11-07T03:44:35.951Z,15.43
2018-11-07T03:47:16.474Z,15.40
2018-11-07T03:49:55.962Z,14.97
2018-11-07T03:52:36.291Z,14.50
2018-11-07T03:55:15.946Z,13.80
2018-11-07T03:57:54.951Z,15.50
2018-11-07T04:00:25.043Z,14.13
2018-11-07T04:03:03.736Z,15.30
2018-11-07T04:05:32.266Z,14.77
2018-11-07T04:08:00.765Z,13.80
2018-11-07T04:10:29.279Z,15.27
2018-11-07T04:13:08.170Z,15.03
2018-11-07T04:15:36.693Z,14.73
2018-11-07T04:18:05.291Z,15.37
2018-11-07T04:20:34.130Z,15.00
2018-11-07T04:23:02.944Z,14.67
2018-11-07T04:25:45.777Z,15.53
2018-11-07T04:28:24.882Z,14.43
2018-11-07T04:30:53.407Z,14.33
2018-11-07T04:33:21.911Z,14.13
2018-11-07T04:36:03.712Z,15.40
2018-11-07T04:38:47.687Z,14.70
2018-11-07T04:41:26.376Z,16.27
2018-11-07T04:44:05.819Z,14.27
2018-11-07T04:46:37.139Z,15.23
2018-11-07T04:49:16.129Z,15.50
2018-11-07T04:51:44.635Z,15.63
2018-11-07T04:54:13.131Z,16.57
2018-11-07T04:56:52.601Z,14.00
2018-11-07T04:59:21.128Z,15.13
2018-11-07T05:01:50.493Z,14.43
2018-11-07T05:04:18.980Z,15.90
2018-11-07T05:06:57.372Z,14.40
2018-11-07T05:09:38.884Z,14.83
2018-11-07T05:12:17.318Z,13.83
2018-11-07T05:14:50.216Z,13.83
2018-11-07T05:17:25.099Z,14.63
2018-11-07T05:19:53.605Z,13.90
2018-11-07T05:22:22.083Z,14.57
2018-11-07T05:24:50.646Z,16.60
2018-11-07T05:27:19.158Z,14.50
2018-11-07T05:29:47.664Z,15.63
2018-11-07T05:32:16.165Z,15.77
2018-11-07T05:34:44.674Z,14.53
2018-11-07T05:37:13.191Z,13.10
2018-11-07T05:39:41.679Z,14.50
2018-11-07T05:42:10.178Z,16.90
2018-11-07T05:44:38.659Z,25.53
2018-11-07T05:47:07.263Z,21.00
2018-11-07T05:49:35.747Z,20.47
2018-11-07T05:52:04.278Z,18.87
2018-11-07T05:54:32.886Z,17.87
2018-11-07T05:57:01.450Z,18.20
2018-11-07T05:59:29.979Z,20.43
2018-11-07T06:01:58.513Z,18.47
2018-11-07T06:04:27.054Z,26.70
2018-11-07T06:06:55.564Z,21.27
2018-11-07T06:09:24.078Z,19.00
2018-11-07T06:11:52.604Z,16.60
2018-11-07T06:17:13.526Z,16.93
2018-11-07T06:19:42.012Z,13.60
2018-11-07T06:22:10.498Z,15.63
2018-11-07T06:24:39.043Z,18.03
2018-11-07T06:27:07.719Z,17.40
2018-11-07T06:29:36.243Z,16.33
2018-11-07T06:32:04.804Z,16.17
2018-11-07T06:34:33.312Z,15.03
2018-11-07T06:37:01.851Z,14.23
2018-11-07T06:39:30.379Z,16.13
2018-11-07T06:41:58.870Z,16.40
2018-11-07T06:44:27.418Z,14.83
2018-11-07T06:46:55.877Z,13.93
2018-11-07T06:49:24.407Z,13.07
2018-11-07T06:52:02.554Z,14.00
2018-11-07T06:54:31.074Z,13.83
2018-11-07T06:56:59.594Z,15.67
2018-11-07T06:59:28.101Z,14.43
2018-11-07T07:01:57.485Z,14.23
2018-11-07T07:04:25.979Z,13.90
2018-11-07T07:06:54.467Z,14.17
2018-11-07T07:09:22.967Z,15.63
2018-11-07T07:11:51.463Z,18.17
2018-11-07T07:14:19.961Z,28.33
2018-11-07T07:16:48.496Z,20.07
2018-11-07T07:19:17.079Z,16.90
2018-11-07T07:21:45.590Z,14.70
2018-11-07T07:24:14.134Z,14.40
2018-11-07T07:26:42.659Z,16.73
2018-11-07T07:29:11.250Z,16.67
2018-11-07T07:31:39.793Z,15.27
2018-11-07T07:34:08.426Z,16.40
2018-11-07T07:36:36.918Z,15.50
2018-11-07T07:39:08.169Z,15.10
2018-11-07T07:41:37.169Z,15.10
2018-11-07T07:44:06.577Z,17.50
2018-11-07T07:46:57.029Z,15.20
2018-11-07T07:49:25.640Z,15.10
2018-11-07T07:51:54.086Z,14.30
2018-11-07T07:54:22.592Z,15.27
2018-11-07T07:56:51.118Z,15.77
2018-11-07T07:59:19.607Z,14.37
2018-11-07T08:01:48.146Z,14.43
2018-11-07T08:04:17.014Z,15.80
2018-11-07T08:06:45.542Z,15.27
2018-11-07T08:09:14.481Z,15.07
2018-11-07T08:11:42.991Z,13.20
2018-11-07T08:14:11.475Z,13.73
2018-11-07T08:16:39.986Z,14.93
2018-11-07T08:19:09.522Z,13.90
2018-11-07T08:21:38.049Z,12.00
2018-11-07T08:24:06.567Z,14.10
2018-11-07T08:26:35.522Z,14.50
2018-11-07T08:29:05.203Z,15.40
2018-11-07T08:31:33.913Z,15.83
2018-11-07T08:34:03.482Z,16.00
2018-11-07T08:36:32.122Z,16.50
2018-11-07T08:39:00.690Z,16.20
2018-11-07T08:41:29.235Z,16.93
2018-11-07T08:43:57.738Z,19.27
2018-11-07T08:46:26.271Z,16.97
2018-11-07T08:48:54.775Z,19.47
2018-11-07T08:51:23.291Z,18.53
2018-11-07T08:53:51.815Z,18.83
2018-11-07T08:56:20.651Z,18.10
2018-11-07T08:58:49.220Z,17.30
2018-11-07T09:01:17.754Z,18.40
2018-11-07T09:03:46.247Z,16.90
2018-11-07T09:06:15.242Z,18.40
2018-11-07T09:08:43.818Z,18.40
2018-11-07T09:11:12.609Z,16.73
2018-11-07T09:13:41.102Z,19.37
2018-11-07T09:16:09.590Z,17.70
2018-11-07T09:18:38.126Z,19.30
2018-11-07T09:21:06.629Z,19.20
2018-11-07T09:23:35.150Z,16.90
2018-11-07T09:26:03.840Z,17.13
2018-11-07T09:28:32.351Z,17.43
2018-11-07T09:31:00.875Z,18.90
2018-11-07T09:33:29.372Z,19.17
2018-11-07T09:35:57.867Z,19.17
2018-11-07T09:38:26.371Z,20.20
2018-11-07T09:40:54.875Z,19.80
2018-11-07T09:43:23.397Z,19.93
2018-11-07T09:45:51.891Z,18.93
2018-11-07T09:48:20.528Z,18.50
2018-11-07T09:50:48.962Z,18.60
2018-11-07T09:53:17.510Z,19.23
2018-11-07T09:55:46.087Z,20.13
2018-11-07T09:58:14.635Z,18.77
2018-11-07T10:00:43.210Z,18.77
2018-11-07T10:03:11.715Z,18.70
2018-11-07T10:05:40.276Z,19.30
2018-11-07T10:08:08.764Z,18.67
2018-11-07T10:10:37.288Z,18.43
2018-11-07T10:13:05.867Z,20.00
2018-11-07T10:15:34.431Z,19.50
2018-11-07T10:18:03.136Z,22.10
2018-11-07T10:20:31.642Z,20.47
2018-11-07T10:23:00.156Z,20.57
2018-11-07T10:25:28.714Z,18.67
2018-11-07T10:27:57.621Z,19.97
2018-11-07T10:30:25.872Z,18.50
2018-11-07T10:32:54.343Z,20.33
2018-11-07T10:35:22.864Z,19.17
2018-11-07T10:37:51.439Z,18.60
2018-11-07T10:40:21.602Z,18.97
2018-11-07T10:42:50.149Z,18.70
2018-11-07T10:45:18.711Z,20.03
2018-11-07T10:47:47.989Z,18.90
2018-11-07T10:50:17.491Z,19.10
2018-11-07T10:52:46.484Z,20.10
2018-11-07T10:55:15.820Z,17.73
2018-11-07T10:57:44.394Z,17.53
2018-11-07T11:00:19.496Z,18.13
2018-11-07T11:02:52.997Z,19.97
2018-11-07T11:05:22.395Z,18.50
2018-11-07T11:07:51.023Z,19.27
2018-11-07T11:10:19.539Z,18.13
2018-11-07T11:12:48.166Z,19.90
2018-11-07T11:15:16.675Z,20.50
2018-11-07T11:17:45.178Z,20.87
2018-11-07T11:20:14.571Z,18.57
2018-11-07T11:22:43.192Z,19.07
2018-11-07T11:25:11.927Z,20.70
2018-11-07T11:27:40.448Z,19.90
2018-11-07T11:30:09.862Z,21.20
2018-11-07T11:32:38.621Z,21.40
2018-11-07T11:35:08.244Z,23.80
2018-11-07T11:37:37.078Z,21.93
2018-11-07T11:40:07.143Z,18.83
2018-11-07T11:42:35.668Z,21.03
2018-11-07T11:45:04.234Z,21.43
2018-11-07T11:47:32.763Z,19.40
2018-11-07T11:50:01.632Z,20.13
2018-11-07T11:52:30.147Z,18.87
2018-11-07T11:54:58.649Z,21.30
2018-11-07T11:57:27.236Z,22.70
2018-11-07T11:59:56.079Z,22.03
2018-11-07T12:02:24.367Z,22.43
2018-11-07T12:04:52.851Z,20.33
2018-11-07T12:07:21.365Z,23.63
2018-11-07T12:09:50.303Z,22.07
2018-11-07T12:15:11.188Z,21.07
2018-11-07T12:17:39.755Z,22.43
2018-11-07T12:20:08.653Z,21.47
2018-11-07T12:22:37.158Z,21.63
2018-11-07T12:25:07.177Z,18.53
2018-11-07T12:27:35.703Z,21.67
2018-11-07T12:30:04.855Z,22.60
2018-11-07T12:32:33.372Z,21.50
2018-11-07T12:35:01.919Z,24.23
2018-11-07T12:37:30.447Z,22.43
2018-11-07T12:39:58.984Z,23.77
2018-11-07T12:42:27.583Z,23.50
2018-11-07T12:44:56.111Z,23.07
2018-11-07T12:47:24.686Z,21.23
2018-11-07T12:49:53.328Z,21.80
2018-11-07T12:52:21.773Z,23.10
2018-11-07T12:54:50.286Z,22.43
2018-11-07T12:57:18.943Z,25.70
2018-11-07T12:59:47.358Z,25.27
2018-11-07T13:02:15.894Z,24.60
2018-11-07T13:04:44.486Z,26.30
2018-11-07T13:07:12.950Z,25.20
2018-11-07T13:09:41.811Z,25.00
2018-11-07T13:12:10.337Z,25.30
2018-11-07T13:14:38.983Z,24.30
2018-11-07T13:17:07.651Z,26.20
2018-11-07T13:19:36.168Z,25.80
2018-11-07T13:22:05.047Z,26.33
2018-11-07T13:24:33.619Z,26.97
2018-11-07T13:27:02.220Z,26.37
2018-11-07T13:29:30.754Z,25.70
2018-11-07T13:31:59.291Z,26.87
2018-11-07T13:34:27.860Z,24.70
2018-11-07T13:36:56.459Z,25.17
2018-11-07T13:39:24.858Z,27.80
2018-11-07T13:41:53.355Z,27.90
2018-11-07T13:44:21.896Z,28.43
2018-11-07T13:46:50.460Z,26.80
2018-11-07T13:49:18.955Z,27.00
2018-11-07T13:51:47.453Z,27.47
2018-11-07T13:54:16.399Z,28.87
2018-11-07T13:56:44.923Z,27.73
2018-11-07T13:59:13.523Z,28.13
2018-11-07T14:01:41.996Z,25.23
2018-11-07T14:04:10.492Z,27.20
2018-11-07T14:06:39.031Z,27.40
2018-11-07T14:09:10.190Z,27.13
2018-11-07T14:11:39.078Z,24.83
2018-11-07T14:14:08.690Z,23.70
2018-11-07T14:16:37.498Z,27.33
2018-11-07T14:19:07.840Z,25.90
2018-11-07T14:21:36.465Z,25.47
2018-11-07T14:24:06.712Z,26.27
2018-11-07T14:26:35.379Z,24.30
2018-11-07T14:29:05.883Z,26.90
2018-11-07T14:31:34.455Z,27.27
2018-11-07T14:34:05.827Z,26.70
2018-11-07T14:36:34.391Z,31.87
2018-11-07T14:39:04.310Z,31.63
2018-11-07T14:41:32.802Z,37.57
2018-11-07T14:44:01.497Z,34.57
2018-11-07T14:46:30.087Z,27.20
2018-11-07T14:48:58.591Z,25.43
2018-11-07T14:51:27.111Z,24.23
2018-11-07T14:53:55.676Z,25.53
2018-11-07T14:56:24.255Z,26.67
2018-11-07T14:58:53.179Z,24.60
2018-11-07T15:01:21.729Z,23.03
2018-11-07T15:03:50.231Z,23.27
2018-11-07T15:06:18.724Z,23.00
2018-11-07T15:08:47.278Z,24.97
2018-11-07T15:11:15.763Z,23.83
2018-11-07T15:13:44.295Z,25.57
2018-11-07T15:16:12.791Z,26.30
2018-11-07T15:18:41.301Z,24.37
2018-11-07T15:21:09.854Z,23.90
2018-11-07T15:23:38.379Z,22.87
2018-11-07T15:26:06.875Z,21.70
2018-11-07T15:28:35.444Z,22.30
2018-11-07T15:31:04.013Z,26.80
2018-11-07T15:33:32.691Z,22.47
2018-11-07T15:36:01.295Z,26.83
2018-11-07T15:38:29.771Z,26.33
2018-11-07T15:40:58.303Z,30.87
2018-11-07T15:43:27.026Z,28.13
2018-11-07T15:45:55.475Z,27.90
2018-11-07T15:48:23.975Z,27.17
2018-11-07T15:50:57.615Z,29.00
2018-11-07T15:53:26.101Z,29.50
2018-11-07T15:55:54.616Z,32.83
2018-11-07T15:58:23.171Z,45.87
2018-11-07T16:00:51.676Z,62.03
2018-11-07T16:03:25.435Z,50.13
2018-11-07T16:05:53.931Z,44.60
2018-11-07T16:08:22.507Z,42.60
2018-11-07T16:10:51.014Z,39.43
2018-11-07T16:13:19.574Z,35.20
2018-11-07T16:15:48.031Z,32.67
2018-11-07T16:18:16.912Z,33.40
2018-11-07T16:20:45.452Z,31.53
2018-11-07T16:23:13.992Z,31.70
2018-11-07T16:25:42.444Z,31.57
2018-11-07T16:28:10.946Z,32.10
2018-11-07T16:30:39.490Z,29.13
2018-11-07T16:33:08.036Z,31.13
2018-11-07T16:35:36.590Z,30.37
2018-11-07T16:38:05.253Z,31.97
2018-11-07T16:40:33.760Z,33.03
2018-11-07T16:43:02.412Z,35.00
2018-11-07T16:45:30.914Z,36.43
2018-11-07T16:47:59.451Z,34.10
2018-11-07T16:50:27.972Z,37.27
2018-11-07T16:52:56.463Z,56.60
2018-11-07T16:55:24.983Z,56.83
2018-11-07T16:57:53.498Z,57.00
2018-11-07T17:00:22.170Z,51.57
2018-11-07T17:02:50.964Z,50.30
2018-11-07T17:05:19.982Z,42.40
2018-11-07T17:07:48.877Z,42.60
2018-11-07T17:10:17.771Z,48.37
2018-11-07T17:12:46.269Z,54.90
2018-11-07T17:15:14.813Z,59.40
2018-11-07T17:17:43.436Z,54.43
2018-11-07T17:20:13.239Z,57.37
2018-11-07T17:22:42.138Z,56.00
2018-11-07T17:25:13.702Z,58.13
2018-11-07T17:27:43.011Z,52.20
2018-11-07T17:30:12.795Z,46.17
2018-11-07T17:32:41.319Z,41.93
2018-11-07T17:35:12.044Z,38.47
2018-11-07T17:37:40.853Z,36.53
2018-11-07T17:40:12.898Z,45.60
2018-11-07T17:42:41.410Z,47.77
2018-11-07T17:45:11.923Z,43.83
2018-11-07T17:47:41.130Z,40.73
2018-11-07T17:50:10.879Z,47.40
2018-11-07T17:52:39.927Z,51.10
2018-11-07T17:55:09.235Z,39.97
2018-11-07T17:57:37.752Z,45.87
2018-11-07T18:00:08.322Z,47.43
2018-11-07T18:02:36.830Z,48.80
2018-11-07T18:05:05.525Z,71.27
2018-11-07T18:07:34.083Z,57.20
2018-11-07T18:10:02.628Z,43.53
2018-11-07T18:12:31.159Z,39.80
2018-11-07T18:14:59.742Z,33.80
2018-11-07T18:17:28.398Z,35.23
2018-11-07T18:19:56.906Z,37.07
2018-11-07T18:22:25.436Z,43.40
2018-11-07T18:24:53.946Z,50.60
2018-11-07T18:27:22.895Z,52.20
2018-11-07T18:29:51.343Z,39.27
2018-11-07T18:32:19.858Z,38.90
2018-11-07T18:34:48.338Z,40.10
2018-11-07T18:37:16.875Z,37.33
2018-11-07T18:39:45.427Z,33.83
2018-11-07T18:42:14.037Z,33.57
2018-11-07T18:44:42.620Z,32.53
2018-11-07T18:47:11.861Z,36.53
2018-11-07T18:49:40.374Z,39.83
2018-11-07T18:52:09.029Z,47.47
2018-11-07T18:56:47.555Z,37.30
2018-11-07T18:59:16.087Z,35.40
2018-11-07T19:01:45.543Z,35.97
2018-11-07T19:04:14.343Z,34.27
2018-11-07T19:07:45.485Z,37.57
2018-11-07T19:10:17.919Z,38.60
2018-11-07T19:12:47.994Z,39.47
2018-11-07T19:15:18.314Z,35.37
2018-11-07T19:17:50.783Z,31.93
2018-11-07T19:20:21.805Z,39.07
2018-11-07T19:22:51.991Z,40.17
2018-11-07T19:25:22.391Z,39.17
2018-11-07T19:27:52.853Z,35.57
2018-11-07T19:30:23.254Z,37.20
2018-11-07T19:32:54.023Z,37.77
2018-11-07T19:35:23.834Z,34.63
2018-11-07T19:37:53.833Z,33.20
2018-11-07T19:40:26.378Z,32.53
2018-11-07T19:42:56.044Z,34.63
2018-11-07T19:45:26.815Z,35.30
2018-11-07T19:47:57.446Z,34.80
2018-11-07T19:50:27.934Z,34.90
2018-11-07T19:52:58.993Z,32.47
2018-11-07T19:55:28.913Z,33.60
2018-11-07T19:58:00.667Z,32.97
2018-11-07T20:00:30.389Z,32.63
2018-11-07T20:03:01.360Z,34.00
2018-11-07T20:05:33.857Z,31.50
2018-11-07T20:08:05.275Z,31.37
2018-11-07T20:10:37.099Z,33.90
2018-11-07T20:13:09.203Z,31.57
2018-11-07T20:15:40.252Z,31.80
2018-11-07T20:18:10.129Z,30.33
2018-11-07T20:20:40.044Z,33.97
2018-11-07T20:23:11.010Z,32.90
2018-11-07T20:25:41.075Z,34.30
2018-11-07T20:28:12.241Z,31.00
2018-11-07T20:30:42.347Z,27.70
2018-11-07T20:33:18.887Z,26.83
2018-11-07T20:35:52.329Z,25.30
2018-11-07T20:38:22.891Z,25.43
2018-11-07T20:40:56.120Z,28.33
2018-11-07T20:43:27.320Z,34.77
2018-11-07T20:45:57.325Z,34.40
2018-11-07T20:48:29.074Z,37.43
2018-11-07T20:51:04.122Z,36.77
2018-11-07T20:53:33.541Z,35.03
2018-11-07T20:56:06.398Z,33.87
2018-11-07T20:58:37.166Z,35.23
2018-11-07T21:01:09.357Z,33.23
2018-11-07T21:03:40.244Z,32.67
2018-11-07T21:06:10.182Z,29.40
2018-11-07T21:08:40.102Z,27.33
2018-11-07T21:11:11.158Z,27.20
2018-11-07T21:13:43.202Z,27.50
2018-11-07T21:16:13.354Z,27.37
2018-11-07T21:18:43.251Z,28.07
2018-11-07T21:21:13.179Z,29.80
2018-11-07T21:23:43.314Z,30.67
2018-11-07T21:26:15.114Z,31.77
2018-11-07T21:28:48.479Z,31.67
2018-11-07T21:31:19.175Z,33.93
2018-11-07T21:33:52.328Z,29.40
2018-11-07T21:36:23.235Z,27.23
2018-11-07T21:38:57.033Z,25.67
2018-11-07T21:41:33.134Z,22.80
2018-11-07T21:44:07.782Z,24.90
2018-11-07T21:46:37.496Z,26.03
2018-11-07T21:49:07.721Z,27.10
2018-11-07T21:51:37.502Z,21.87
2018-11-07T21:54:08.102Z,22.07
2018-11-07T21:56:38.864Z,23.17
2018-11-07T21:59:08.950Z,21.17
2018-11-07T22:01:40.365Z,20.87
2018-11-07T22:04:10.287Z,21.80
2018-11-07T22:06:40.504Z,22.23
2018-11-07T22:09:12.258Z,20.03
2018-11-07T22:11:41.975Z,23.13
2018-11-07T22:14:11.675Z,22.60
2018-11-07T22:16:45.349Z,22.60
2018-11-07T22:19:19.326Z,21.77
2018-11-07T22:21:50.547Z,21.13
2018-11-07T22:24:20.681Z,21.13
2018-11-07T22:26:50.547Z,21.60
2018-11-07T22:29:21.642Z,20.60
2018-11-07T22:31:53.036Z,20.00
2018-11-07T22:34:23.716Z,21.90
2018-11-07T22:36:53.642Z,22.20
2018-11-07T22:39:23.658Z,20.23
2018-11-07T22:41:54.734Z,19.30
2018-11-07T22:44:24.626Z,21.40
2018-11-07T22:46:56.053Z,20.87
2018-11-07T22:49:25.597Z,18.30
2018-11-07T22:51:56.699Z,15.03
2018-11-07T22:54:27.782Z,15.83
2018-11-07T22:56:59.899Z,16.23
2018-11-07T22:59:31.835Z,16.17
2018-11-07T23:02:03.489Z,19.03
2018-11-07T23:04:37.483Z,18.67
2018-11-07T23:07:07.755Z,20.07
2018-11-07T23:09:37.643Z,20.23
2018-11-07T23:12:08.785Z,19.00
2018-11-07T23:14:40.769Z,20.27
2018-11-07T23:17:11.014Z,18.17
2018-11-07T23:19:40.788Z,19.30
2018-11-07T23:22:11.822Z,17.23
2018-11-07T23:24:42.591Z,18.17
2018-11-07T23:27:12.852Z,16.73
2018-11-07T23:29:43.294Z,15.13
2018-11-07T23:32:13.659Z,14.43
2018-11-07T23:34:46.763Z,12.50
2018-11-07T23:37:17.677Z,12.90
2018-11-07T23:39:50.898Z,13.33
2018-11-07T23:42:20.735Z,13.73
2018-11-07T23:44:57.671Z,14.30
2018-11-07T23:47:27.979Z,16.57
2018-11-07T23:49:58.888Z,17.73
2018-11-07T23:52:34.137Z,17.40
2018-11-07T23:55:06.203Z,19.40
2018-11-07T23:57:38.019Z,20.63
